createdAt,value
2022-12-12T00:01:34.685Z,98400.16
2022-12-12T00:04:01.023Z,98412.41
2022-12-12T00:06:28.221Z,98409.91
2022-12-12T00:08:55.072Z,98410.66
2022-12-12T00:11:22.732Z,98414.75
2022-12-12T00:13:49.710Z,98426.19
2022-12-12T00:16:16.574Z,98430.06
2022-12-12T00:18:43.046Z,98426.38
2022-12-12T00:21:19.273Z,98428.72
2022-12-12T00:23:45.979Z,98416.03
2022-12-12T00:26:19.228Z,98415.81
2022-12-12T00:28:46.146Z,98407.41
2022-12-12T00:31:12.877Z,98414.44
2022-12-12T00:33:39.505Z,98412.91
2022-12-12T00:36:06.527Z,98414.22
2022-12-12T00:38:33.081Z,98418.53
2022-12-12T00:41:01.112Z,98423.75
2022-12-12T00:43:27.566Z,98422.31
2022-12-12T00:45:54.206Z,98432.09
2022-12-12T00:48:20.983Z,98433.75
2022-12-12T00:50:47.421Z,98441.84
2022-12-12T00:53:13.787Z,98454.22
2022-12-12T00:55:40.253Z,98444.44
2022-12-12T00:58:06.599Z,98448.59
2022-12-12T01:00:33.834Z,98448.47
2022-12-12T01:03:00.606Z,98446.13
2022-12-12T01:05:27.965Z,98450.88
2022-12-12T01:07:54.302Z,98449.91
2022-12-12T01:10:20.730Z,98457.53
2022-12-12T01:12:47.103Z,98459.56
2022-12-12T01:15:13.657Z,98456.94
2022-12-12T01:17:40.170Z,98448.47
2022-12-12T01:20:14.748Z,98444.22
2022-12-12T01:22:41.048Z,98444.84
2022-12-12T01:25:08.045Z,98446.88
2022-12-12T01:27:34.478Z,98459.31
2022-12-12T01:30:00.824Z,98458.75
2022-12-12T01:32:28.510Z,98470.25
2022-12-12T01:34:55.042Z,98482.88
2022-12-12T01:37:21.435Z,98492.28
2022-12-12T01:39:48.191Z,98494.41
2022-12-12T01:42:18.831Z,98504.84
2022-12-12T01:44:48.850Z,98506.88
2022-12-12T01:47:18.228Z,98502.00
2022-12-12T01:49:49.353Z,98506.78
2022-12-12T01:52:21.388Z,98510.22
2022-12-12T01:54:53.136Z,98515.66
2022-12-12T01:57:29.893Z,98518.16
2022-12-12T01:59:58.316Z,98515.91
2022-12-12T02:02:25.168Z,98516.97
2022-12-12T02:04:51.747Z,98520.78
2022-12-12T02:07:18.199Z,98526.47
2022-12-12T02:09:47.254Z,98524.91
2022-12-12T02:12:15.166Z,98531.19
2022-12-12T02:14:46.363Z,98525.28
2022-12-12T02:17:31.854Z,98530.00
2022-12-12T02:20:19.266Z,98540.69
2022-12-12T02:22:54.316Z,98533.09
2022-12-12T02:25:42.368Z,98533.56
2022-12-12T02:28:24.345Z,98532.72
2022-12-12T02:30:59.383Z,98528.78
2022-12-12T02:33:50.644Z,98535.44
2022-12-12T02:36:30.562Z,98542.44
2022-12-12T02:38:59.868Z,98540.38
2022-12-12T02:41:46.612Z,98538.22
2022-12-12T02:44:57.814Z,98535.31
2022-12-12T02:47:29.689Z,98546.13
2022-12-12T02:50:02.964Z,98551.44
2022-12-12T02:52:29.806Z,98550.75
2022-12-12T02:54:56.260Z,98552.63
2022-12-12T02:57:24.771Z,98542.75
2022-12-12T03:00:02.338Z,98544.84
2022-12-12T03:03:10.081Z,98544.97
2022-12-12T03:06:03.601Z,98548.50
2022-12-12T03:08:53.092Z,98548.03
2022-12-12T03:11:43.611Z,98549.69
2022-12-12T03:14:20.340Z,98542.47
2022-12-12T03:17:13.045Z,98542.09
2022-12-12T03:19:46.201Z,98539.47
2022-12-12T03:22:24.953Z,98545.88
2022-12-12T03:25:07.526Z,98543.03
2022-12-12T03:28:09.028Z,98542.91
2022-12-12T03:30:42.711Z,98545.66
2022-12-12T03:33:18.828Z,98541.25
2022-12-12T03:35:56.141Z,98533.81
2022-12-12T03:38:28.224Z,98529.03
2022-12-12T03:41:01.529Z,98530.25
2022-12-12T03:43:35.892Z,98533.97
2022-12-12T03:46:25.638Z,98531.50
2022-12-12T03:49:08.844Z,98535.03
2022-12-12T03:51:44.900Z,98526.59
2022-12-12T03:54:28.354Z,98524.66
2022-12-12T03:57:01.496Z,98527.66
2022-12-12T03:59:34.139Z,98525.81
2022-12-12T04:02:02.675Z,98533.53
2022-12-12T04:04:36.523Z,98528.72
2022-12-12T04:07:14.602Z,98529.72
2022-12-12T04:09:42.187Z,98526.72
2022-12-12T04:12:34.521Z,98527.94
2022-12-12T04:15:50.796Z,98526.72
2022-12-12T04:18:34.369Z,98530.81
2022-12-12T04:21:33.724Z,98535.06
2022-12-12T04:24:38.806Z,98520.88
2022-12-12T04:27:12.472Z,98513.94
2022-12-12T04:29:58.650Z,98510.81
2022-12-12T04:32:28.277Z,98501.06
2022-12-12T04:35:03.329Z,98499.19
2022-12-12T04:37:38.654Z,98494.63
2022-12-12T04:40:09.315Z,98498.28
2022-12-12T04:42:46.167Z,98492.84
2022-12-12T04:45:20.974Z,98495.34
2022-12-12T04:47:51.121Z,98491.63
2022-12-12T04:50:21.558Z,98491.19
2022-12-12T04:52:51.972Z,98500.56
2022-12-12T04:55:27.639Z,98494.72
2022-12-12T04:57:55.107Z,98505.78
2022-12-12T05:00:23.536Z,98501.66
2022-12-12T05:02:58.116Z,98502.34
2022-12-12T05:05:43.718Z,98510.16
2022-12-12T05:08:21.435Z,98507.34
2022-12-12T05:10:56.364Z,98524.53
2022-12-12T05:18:48.523Z,98531.22
2022-12-12T05:21:15.820Z,98538.75
2022-12-12T05:23:42.239Z,98543.88
2022-12-12T05:26:10.713Z,98552.91
2022-12-12T05:28:37.431Z,98558.13
2022-12-12T05:31:04.326Z,98567.31
2022-12-12T05:33:30.849Z,98570.97
2022-12-12T05:35:57.180Z,98583.03
2022-12-12T05:38:23.562Z,98587.00
2022-12-12T05:40:49.902Z,98587.94
2022-12-12T05:43:16.331Z,98592.53
2022-12-12T05:45:42.983Z,98607.53
2022-12-12T05:48:09.492Z,98604.59
2022-12-12T05:50:35.868Z,98611.47
2022-12-12T05:53:02.410Z,98618.78
2022-12-12T05:55:29.047Z,98614.72
2022-12-12T05:57:55.447Z,98611.28
2022-12-12T06:00:22.018Z,98610.88
2022-12-12T06:02:48.494Z,98598.06
2022-12-12T06:05:15.583Z,98595.97
2022-12-12T06:07:42.149Z,98602.75
2022-12-12T06:10:09.258Z,98600.66
2022-12-12T06:12:35.787Z,98597.75
2022-12-12T06:15:02.505Z,98599.94
2022-12-12T06:17:33.083Z,98596.50
2022-12-12T06:20:00.227Z,98601.06
2022-12-12T06:22:26.621Z,98597.13
2022-12-12T06:24:53.050Z,98595.22
2022-12-12T06:27:19.777Z,98597.94
2022-12-12T06:29:46.226Z,98608.25
2022-12-12T06:32:12.702Z,98603.78
2022-12-12T06:34:39.493Z,98612.75
2022-12-12T06:37:06.790Z,98609.31
2022-12-12T06:39:33.189Z,98607.00
2022-12-12T06:41:59.691Z,98603.88
2022-12-12T06:44:26.201Z,98604.41
2022-12-12T06:46:52.538Z,98600.97
2022-12-12T06:49:18.935Z,98603.16
2022-12-12T06:51:45.302Z,98604.09
2022-12-12T06:54:13.623Z,98603.56
2022-12-12T06:56:46.274Z,98599.81
2022-12-12T06:59:15.216Z,98610.44
2022-12-12T07:01:41.823Z,98613.34
2022-12-12T07:04:08.447Z,98617.31
2022-12-12T07:06:34.990Z,98616.28
2022-12-12T07:09:01.357Z,98614.81
2022-12-12T07:11:28.524Z,98601.25
2022-12-12T07:13:57.203Z,98600.00
2022-12-12T07:16:23.864Z,98599.56
2022-12-12T07:18:50.640Z,98592.38
2022-12-12T07:21:19.448Z,98591.22
2022-12-12T07:23:46.491Z,98583.53
2022-12-12T07:26:15.434Z,98587.25
2022-12-12T07:28:42.148Z,98591.41
2022-12-12T07:31:11.019Z,98581.31
2022-12-12T07:33:43.566Z,98589.13
2022-12-12T07:36:11.593Z,98586.00
2022-12-12T07:38:38.502Z,98583.53
2022-12-12T07:41:06.653Z,98590.91
2022-12-12T07:43:39.996Z,98593.72
2022-12-12T07:46:11.179Z,98601.63
2022-12-12T07:48:37.741Z,98600.00
2022-12-12T07:51:04.693Z,98599.19
2022-12-12T07:53:31.168Z,98592.50
2022-12-12T07:55:57.636Z,98601.41
2022-12-12T07:58:24.057Z,98605.16
2022-12-12T08:00:50.474Z,98595.13
2022-12-12T08:03:17.034Z,98583.09
2022-12-12T08:05:43.869Z,98572.44
2022-12-12T08:08:10.767Z,98562.81
2022-12-12T08:10:40.404Z,98559.00
2022-12-12T08:13:07.111Z,98521.50
2022-12-12T08:15:33.970Z,98513.69
2022-12-12T08:18:00.501Z,98516.53
2022-12-12T08:20:27.046Z,98526.19
2022-12-12T08:22:53.377Z,98525.03
2022-12-12T08:25:19.883Z,98514.81
2022-12-12T08:27:46.250Z,98513.16
2022-12-12T08:30:13.099Z,98512.88
2022-12-12T08:32:39.590Z,98528.53
2022-12-12T08:35:06.678Z,98537.53
2022-12-12T08:37:33.052Z,98542.47
2022-12-12T08:39:59.408Z,98540.81
2022-12-12T08:42:26.112Z,98526.88
2022-12-12T08:44:52.739Z,98515.69
2022-12-12T08:47:19.052Z,98504.19
2022-12-12T08:49:45.453Z,98498.16
2022-12-12T08:52:12.055Z,98497.94
2022-12-12T08:54:38.452Z,98477.94
2022-12-12T08:57:04.897Z,98488.88
2022-12-12T08:59:31.261Z,98490.06
2022-12-12T09:01:57.673Z,98495.34
2022-12-12T09:04:24.422Z,98491.88
2022-12-12T09:06:50.876Z,98496.72
2022-12-12T09:09:17.360Z,98486.50
2022-12-12T09:11:44.176Z,98488.16
2022-12-12T09:14:10.750Z,98488.44
2022-12-12T09:16:37.140Z,98490.22
2022-12-12T09:19:04.794Z,98481.44
2022-12-12T09:21:31.181Z,98480.38
2022-12-12T09:23:57.552Z,98475.88
2022-12-12T09:26:24.056Z,98463.53
2022-12-12T09:28:50.442Z,98453.84
2022-12-12T09:31:16.854Z,98434.72
2022-12-12T09:33:43.352Z,98424.50
2022-12-12T09:36:11.718Z,98430.06
2022-12-12T09:38:38.154Z,98420.56
2022-12-12T09:41:18.617Z,98417.09
2022-12-12T09:43:50.405Z,98424.19
2022-12-12T09:46:40.393Z,98405.41
2022-12-12T09:49:44.255Z,98407.69
2022-12-12T09:52:17.559Z,98403.63
2022-12-12T09:54:44.574Z,98394.91
2022-12-12T09:57:25.740Z,98377.22
2022-12-12T10:00:02.099Z,98378.78
2022-12-12T10:02:47.154Z,98370.78
2022-12-12T10:05:49.232Z,98373.59
2022-12-12T10:08:42.676Z,98369.69
2022-12-12T10:11:13.542Z,98381.06
2022-12-12T10:13:39.871Z,98380.16
2022-12-12T10:16:14.271Z,98389.25
2022-12-12T10:18:44.991Z,98381.50
2022-12-12T10:21:21.107Z,98369.47
2022-12-12T10:23:53.231Z,98361.78
2022-12-12T10:26:25.326Z,98352.03
2022-12-12T10:28:55.772Z,98336.53
2022-12-12T10:32:01.271Z,98333.91
2022-12-12T10:34:36.813Z,98339.59
2022-12-12T10:37:33.632Z,98336.97
2022-12-12T10:40:15.347Z,98339.75
2022-12-12T10:42:55.362Z,98351.59
2022-12-12T10:45:32.202Z,98345.13
2022-12-12T10:47:58.683Z,98341.41
2022-12-12T10:50:39.475Z,98336.84
2022-12-12T10:53:10.169Z,98332.56
2022-12-12T10:55:45.707Z,98333.63
2022-12-12T10:58:12.348Z,98322.47
2022-12-12T11:00:43.562Z,98320.09
2022-12-12T11:03:19.267Z,98321.28
2022-12-12T11:05:47.595Z,98317.09
2022-12-12T11:08:19.889Z,98314.94
2022-12-12T11:10:59.459Z,98310.81
2022-12-12T11:13:26.041Z,98301.03
2022-12-12T11:16:13.031Z,98304.81
2022-12-12T11:18:40.088Z,98299.88
2022-12-12T11:21:10.871Z,98294.13
2022-12-12T11:23:52.572Z,98286.34
2022-12-12T11:26:21.564Z,98293.22
2022-12-12T11:29:02.290Z,98281.16
2022-12-12T11:31:34.151Z,98276.47
2022-12-12T11:34:04.360Z,98274.47
2022-12-12T11:36:38.172Z,98278.66
2022-12-12T11:39:28.122Z,98277.97
2022-12-12T11:41:59.220Z,98268.97
2022-12-12T11:44:32.221Z,98275.44
2022-12-12T11:47:25.552Z,98272.03
2022-12-12T11:49:58.664Z,98268.81
2022-12-12T11:52:33.257Z,98268.44
2022-12-12T11:55:00.766Z,98274.13
2022-12-12T11:57:27.161Z,98271.50
2022-12-12T12:00:14.859Z,98266.16
2022-12-12T12:02:50.242Z,98263.75
2022-12-12T12:05:32.965Z,98270.09
2022-12-12T12:08:24.113Z,98266.28
2022-12-12T12:11:05.685Z,98253.38
2022-12-12T12:14:03.827Z,98265.22
2022-12-12T12:17:08.831Z,98259.72
2022-12-12T12:20:01.190Z,98256.25
2022-12-12T12:22:57.417Z,98257.59
2022-12-12T12:25:28.241Z,98267.97
2022-12-12T12:28:06.682Z,98268.13
2022-12-12T12:31:08.525Z,98262.56
2022-12-12T12:34:30.873Z,98257.00
2022-12-12T12:37:36.815Z,98252.78
2022-12-12T12:40:31.467Z,98253.47
2022-12-12T12:43:16.434Z,98260.03
2022-12-12T12:45:56.392Z,98255.22
2022-12-12T12:48:30.770Z,98245.97
2022-12-12T12:51:33.731Z,98250.53
2022-12-12T12:54:06.407Z,98242.13
2022-12-12T12:56:44.226Z,98246.50
2022-12-12T12:59:17.154Z,98241.22
2022-12-12T13:01:47.589Z,98239.06
2022-12-12T13:04:24.203Z,98239.53
2022-12-12T13:07:41.092Z,98235.81
2022-12-12T13:10:21.895Z,98246.03
2022-12-12T13:13:06.955Z,98239.13
2022-12-12T13:15:39.278Z,98240.22
2022-12-12T13:18:12.130Z,98240.69
2022-12-12T13:20:42.028Z,98235.84
2022-12-12T13:23:20.454Z,98236.38
2022-12-12T13:25:58.273Z,98226.13
2022-12-12T13:28:33.025Z,98235.22
2022-12-12T13:31:22.374Z,98233.28
2022-12-12T13:34:04.399Z,98224.50
2022-12-12T13:36:40.668Z,98233.97
2022-12-12T13:39:22.297Z,98225.59
2022-12-12T13:41:59.814Z,98226.94
2022-12-12T13:44:38.519Z,98224.69
2022-12-12T13:47:23.546Z,98221.38
2022-12-12T13:49:55.137Z,98226.38
2022-12-12T13:52:26.954Z,98221.69
2022-12-12T13:55:12.957Z,98221.81
2022-12-12T13:57:57.404Z,98216.19
2022-12-12T14:00:25.507Z,98209.03
2022-12-12T14:03:01.302Z,98223.31
2022-12-12T14:05:43.330Z,98213.81
2022-12-12T14:08:12.524Z,98215.00
2022-12-12T14:10:52.393Z,98218.31
2022-12-12T14:13:21.574Z,98217.41
2022-12-12T14:15:58.460Z,98223.16
2022-12-12T14:18:30.483Z,98222.59
2022-12-12T14:21:07.254Z,98212.84
2022-12-12T14:23:42.229Z,98216.88
2022-12-12T14:26:27.242Z,98220.50
2022-12-12T14:29:18.488Z,98217.34
2022-12-12T14:32:06.695Z,98217.47
2022-12-12T14:34:51.886Z,98218.72
2022-12-12T14:37:52.129Z,98213.09
2022-12-12T14:40:22.919Z,98206.78
2022-12-12T14:43:18.480Z,98204.84
2022-12-12T14:45:51.782Z,98208.41
2022-12-12T14:48:29.782Z,98217.19
2022-12-12T14:51:27.703Z,98207.50
2022-12-12T14:53:58.813Z,98210.50
2022-12-12T14:56:29.847Z,98199.63
2022-12-12T14:59:02.640Z,98194.06
2022-12-12T15:01:34.110Z,98189.88
2022-12-12T15:04:04.084Z,98188.94
2022-12-12T15:06:45.456Z,98197.28
2022-12-12T15:09:30.315Z,98189.06
2022-12-12T15:12:05.912Z,98188.56
2022-12-12T15:14:32.264Z,98196.84
2022-12-12T15:17:01.887Z,98201.59
2022-12-12T15:19:41.288Z,98194.22
2022-12-12T15:22:28.536Z,98196.06
2022-12-12T15:24:56.703Z,98205.22
2022-12-12T15:27:46.978Z,98207.44
2022-12-12T15:30:30.792Z,98210.78
2022-12-12T15:33:01.190Z,98207.88
2022-12-12T15:35:28.028Z,98215.94
2022-12-12T15:38:02.010Z,98211.66
2022-12-12T15:40:30.978Z,98211.81
2022-12-12T15:43:07.255Z,98216.09
2022-12-12T15:45:39.897Z,98228.22
2022-12-12T15:48:12.492Z,98228.78
2022-12-12T15:50:41.663Z,98228.50
2022-12-12T15:53:24.901Z,98227.94
2022-12-12T15:56:06.582Z,98223.94
2022-12-12T15:58:38.073Z,98226.13
2022-12-12T16:01:20.653Z,98223.78
2022-12-12T16:04:03.421Z,98221.28
2022-12-12T16:06:42.224Z,98218.25
2022-12-12T16:09:11.680Z,98227.75
2022-12-12T16:11:46.107Z,98228.28
2022-12-12T16:14:24.866Z,98225.09
2022-12-12T16:17:05.722Z,98227.72
2022-12-12T16:19:47.423Z,98237.63
2022-12-12T16:22:23.915Z,98232.97
2022-12-12T16:24:53.425Z,98237.72
2022-12-12T16:27:20.461Z,98241.13
2022-12-12T16:29:47.655Z,98245.09
2022-12-12T16:32:17.428Z,98259.94
2022-12-12T16:34:44.967Z,98265.28
2022-12-12T16:37:16.437Z,98263.06
2022-12-12T16:39:42.997Z,98264.59
2022-12-12T16:42:16.668Z,98269.38
2022-12-12T16:44:43.925Z,98270.13
2022-12-12T16:47:17.966Z,98277.28
2022-12-12T16:49:45.055Z,98276.09
2022-12-12T16:52:13.399Z,98284.88
2022-12-12T16:54:40.609Z,98275.63
2022-12-12T16:57:07.090Z,98283.03
2022-12-12T16:59:33.703Z,98287.84
2022-12-12T17:02:00.163Z,98295.28
2022-12-12T17:04:26.755Z,98295.44
2022-12-12T17:06:53.705Z,98288.97
2022-12-12T17:09:21.579Z,98289.88
2022-12-12T17:11:51.012Z,98288.72
2022-12-12T17:14:23.123Z,98290.06
2022-12-12T17:16:50.455Z,98287.38
2022-12-12T17:19:17.326Z,98286.50
2022-12-12T17:21:43.944Z,98277.38
2022-12-12T17:24:10.817Z,98282.56
2022-12-12T17:26:38.732Z,98284.72
2022-12-12T17:29:07.122Z,98282.28
2022-12-12T17:31:34.159Z,98277.31
2022-12-12T17:34:01.781Z,98280.38
2022-12-12T17:36:28.227Z,98271.84
2022-12-12T17:38:54.992Z,98277.25
2022-12-12T17:41:21.408Z,98275.25
2022-12-12T17:43:53.621Z,98272.91
2022-12-12T17:46:22.464Z,98273.97
2022-12-12T17:48:49.125Z,98280.31
2022-12-12T17:51:21.588Z,98284.59
2022-12-12T17:53:48.087Z,98271.78
2022-12-12T17:56:17.279Z,98277.75
2022-12-12T17:58:45.717Z,98287.28
2022-12-12T18:01:15.690Z,98296.19
2022-12-12T18:03:43.204Z,98293.81
2022-12-12T18:06:10.507Z,98298.09
2022-12-12T18:08:38.331Z,98325.19
2022-12-12T18:11:09.794Z,98337.47
2022-12-12T18:13:36.866Z,98345.78
2022-12-12T18:16:03.448Z,98351.34
2022-12-12T18:18:29.928Z,98374.75
2022-12-12T18:20:56.520Z,98374.72
2022-12-12T18:23:22.944Z,98383.03
2022-12-12T18:25:49.669Z,98390.03
2022-12-12T18:28:16.044Z,98385.06
2022-12-12T18:30:42.443Z,98386.09
2022-12-12T18:33:10.838Z,98390.50
2022-12-12T18:35:37.319Z,98391.56
2022-12-12T18:38:03.960Z,98397.84
2022-12-12T18:40:30.583Z,98399.72
2022-12-12T18:42:57.026Z,98397.22
2022-12-12T18:45:23.462Z,98402.06
2022-12-12T18:47:50.166Z,98420.69
2022-12-12T18:50:16.793Z,98427.63
2022-12-12T18:52:43.359Z,98424.22
2022-12-12T18:55:10.716Z,98425.88
2022-12-12T18:57:37.350Z,98431.19
2022-12-12T19:00:05.094Z,98435.00
2022-12-12T19:02:32.661Z,98438.44
2022-12-12T19:04:59.887Z,98434.50
2022-12-12T19:07:26.305Z,98439.09
2022-12-12T19:09:52.893Z,98440.97
2022-12-12T19:12:19.492Z,98437.91
2022-12-12T19:15:08.125Z,98456.69
2022-12-12T19:17:32.332Z,98453.63
2022-12-12T19:19:58.736Z,98465.34
2022-12-12T19:25:13.619Z,98468.13
2022-12-12T19:27:39.984Z,98462.63
2022-12-12T19:30:07.108Z,98469.00
2022-12-12T19:32:33.563Z,98473.47
2022-12-12T19:35:00.370Z,98477.25
2022-12-12T19:37:26.809Z,98482.03
2022-12-12T19:39:53.470Z,98488.16
2022-12-12T19:42:20.515Z,98492.63
2022-12-12T19:44:47.023Z,98482.75
2022-12-12T19:47:13.374Z,98477.63
2022-12-12T19:49:40.165Z,98478.06
2022-12-12T19:52:12.155Z,98483.28
2022-12-12T19:54:40.378Z,98484.94
2022-12-12T19:57:06.977Z,98484.25
2022-12-12T19:59:33.328Z,98492.56
2022-12-12T20:01:59.757Z,98493.75
2022-12-12T20:04:26.234Z,98489.19
2022-12-12T20:06:52.913Z,98495.22
2022-12-12T20:09:25.345Z,98490.22
2022-12-12T20:11:52.657Z,98495.75
2022-12-12T20:14:24.472Z,98495.03
2022-12-12T20:16:52.515Z,98502.75
2022-12-12T20:19:20.389Z,98504.19
2022-12-12T20:22:04.030Z,98507.66
2022-12-12T20:24:33.822Z,98508.81
2022-12-12T20:27:02.131Z,98512.94
2022-12-12T20:29:28.727Z,98510.56
2022-12-12T20:31:55.267Z,98522.13
2022-12-12T20:34:21.948Z,98529.38
2022-12-12T20:36:48.641Z,98546.06
2022-12-12T20:39:17.872Z,98551.16
2022-12-12T20:41:44.753Z,98544.31
2022-12-12T20:44:13.351Z,98555.75
2022-12-12T20:46:42.115Z,98551.69
2022-12-12T20:49:10.430Z,98550.75
2022-12-12T20:54:24.723Z,98560.41
2022-12-12T20:56:52.396Z,98553.56
2022-12-12T20:59:18.793Z,98549.09
2022-12-12T21:01:45.775Z,98544.78
2022-12-12T21:04:12.314Z,98538.38
2022-12-12T21:06:41.622Z,98535.03
2022-12-12T21:09:10.683Z,98545.75
2022-12-12T21:11:38.627Z,98535.97
2022-12-12T21:14:06.743Z,98539.72
2022-12-12T21:16:36.755Z,98533.91
2022-12-12T21:19:06.395Z,98538.97
2022-12-12T21:21:33.973Z,98543.03
2022-12-12T21:24:01.160Z,98547.31
2022-12-12T21:26:30.647Z,98533.16
2022-12-12T21:28:59.076Z,98531.25
2022-12-12T21:31:28.459Z,98529.69
2022-12-12T21:33:55.336Z,98532.72
2022-12-12T21:36:23.771Z,98526.69
2022-12-12T21:38:51.716Z,98526.59
2022-12-12T21:41:20.533Z,98519.59
2022-12-12T21:43:48.894Z,98511.19
2022-12-12T21:46:21.510Z,98515.34
2022-12-12T21:48:48.964Z,98509.59
2022-12-12T21:51:16.380Z,98507.13
2022-12-12T21:53:43.033Z,98505.66
2022-12-12T21:56:17.317Z,98502.31
2022-12-12T21:58:46.144Z,98492.31
2022-12-12T22:01:18.654Z,98506.47
2022-12-12T22:03:47.377Z,98507.31
2022-12-12T22:06:24.332Z,98502.31
2022-12-12T22:08:51.353Z,98500.22
2022-12-12T22:11:34.400Z,98504.69
2022-12-12T22:14:06.694Z,98508.94
2022-12-12T22:16:33.784Z,98514.31
2022-12-12T22:19:05.806Z,98516.56
2022-12-12T22:21:33.801Z,98521.34
2022-12-12T22:24:01.170Z,98526.09
2022-12-12T22:26:33.964Z,98530.03
2022-12-12T22:29:04.729Z,98528.72
2022-12-12T22:31:33.114Z,98543.59
2022-12-12T22:34:17.786Z,98543.03
2022-12-12T22:36:45.259Z,98547.59
2022-12-12T22:39:20.391Z,98553.94
2022-12-12T22:41:47.062Z,98550.78
2022-12-12T22:44:16.473Z,98556.34
2022-12-12T22:46:47.934Z,98552.91
2022-12-12T22:49:16.192Z,98555.88
2022-12-12T22:51:43.635Z,98547.59
2022-12-12T22:54:10.391Z,98551.03
2022-12-12T22:56:38.168Z,98546.78
2022-12-12T22:59:05.535Z,98549.06
2022-12-12T23:01:32.443Z,98544.72
2022-12-12T23:03:59.425Z,98543.22
2022-12-12T23:06:31.746Z,98539.06
2022-12-12T23:09:03.496Z,98540.00
2022-12-12T23:11:31.255Z,98535.69
2022-12-12T23:14:18.330Z,98535.44
2022-12-12T23:16:45.555Z,98519.41
2022-12-12T23:19:14.428Z,98517.84
2022-12-12T23:21:40.891Z,98515.97
2022-12-12T23:24:07.658Z,98507.34
2022-12-12T23:26:38.714Z,98512.56
2022-12-12T23:29:07.032Z,98506.41
2022-12-12T23:31:35.522Z,98510.97
2022-12-12T23:34:05.567Z,98501.72
2022-12-12T23:36:32.203Z,98502.81
2022-12-12T23:39:01.022Z,98492.81
2022-12-12T23:41:28.442Z,98494.88
2022-12-12T23:43:55.439Z,98497.19
2022-12-12T23:46:23.609Z,98491.91
2022-12-12T23:48:49.922Z,98486.91
2022-12-12T23:51:16.341Z,98483.91
2022-12-12T23:53:42.734Z,98484.31
2022-12-12T23:56:09.420Z,98470.38
2022-12-12T23:58:35.961Z,98464.34
